createdAt,value
2023-05-20T00:02:20.360Z,39.25
2023-05-20T00:05:32.331Z,44.25
2023-05-20T00:08:37.202Z,46.50
2023-05-20T00:11:44.934Z,43.00
2023-05-20T00:14:50.211Z,44.00
2023-05-20T00:17:54.165Z,40.75
2023-05-20T00:21:00.698Z,44.00
2023-05-20T00:24:04.559Z,42.75
2023-05-20T00:27:23.824Z,46.50
2023-05-20T00:30:29.277Z,53.25
2023-05-20T00:33:32.878Z,45.25
2023-05-20T00:36:38.085Z,40.00
2023-05-20T00:39:41.786Z,41.25
2023-05-20T00:42:45.704Z,39.00
2023-05-20T00:45:49.612Z,38.00
2023-05-20T00:48:54.728Z,40.00
2023-05-20T00:52:03.686Z,41.50
2023-05-20T00:55:13.013Z,38.50
2023-05-20T00:58:20.594Z,54.50
2023-05-20T01:01:26.258Z,45.75
2023-05-20T01:04:33.118Z,38.75
2023-05-20T01:07:45.784Z,38.75
2023-05-20T01:10:59.751Z,37.00
2023-05-20T01:14:08.383Z,39.00
2023-05-20T01:17:13.615Z,40.00
2023-05-20T01:20:20.829Z,35.75
2023-05-20T01:23:34.026Z,31.25
2023-05-20T01:26:39.898Z,36.00
2023-05-20T01:29:46.458Z,33.25
2023-05-20T01:32:55.124Z,38.25
2023-05-20T01:36:01.526Z,39.00
2023-05-20T01:39:09.986Z,39.25
2023-05-20T01:42:17.257Z,43.50
2023-05-20T01:45:22.235Z,40.25
2023-05-20T01:48:26.892Z,40.00
2023-05-20T01:51:33.684Z,45.50
2023-05-20T01:54:39.689Z,38.25
2023-05-20T01:57:43.587Z,45.25
2023-05-20T02:00:47.417Z,38.75
2023-05-20T02:03:53.646Z,34.00
2023-05-20T02:07:07.890Z,34.25
2023-05-20T02:10:23.090Z,35.50
2023-05-20T02:13:30.613Z,41.50
2023-05-20T02:16:44.205Z,42.50
2023-05-20T02:19:50.841Z,39.50
2023-05-20T02:22:57.802Z,34.25
2023-05-20T02:26:03.387Z,31.25
2023-05-20T02:29:07.735Z,31.75
2023-05-20T02:32:13.947Z,34.75
2023-05-20T02:35:18.467Z,38.00
2023-05-20T02:38:22.452Z,42.25
2023-05-20T02:41:36.043Z,37.25
2023-05-20T02:44:40.609Z,35.50
2023-05-20T02:47:45.428Z,40.25
2023-05-20T02:50:53.214Z,38.75
2023-05-20T02:54:00.919Z,40.00
2023-05-20T02:57:09.123Z,38.00
2023-05-20T03:00:24.412Z,37.00
2023-05-20T03:03:31.559Z,35.25
2023-05-20T03:06:38.348Z,38.75
2023-05-20T03:09:42.704Z,34.25
2023-05-20T03:12:50.287Z,37.50
2023-05-20T03:15:55.100Z,42.75
2023-05-20T03:19:01.801Z,32.75
2023-05-20T03:22:07.867Z,35.00
2023-05-20T03:25:13.575Z,28.25
2023-05-20T03:28:19.845Z,33.75
2023-05-20T03:31:24.388Z,35.50
2023-05-20T03:34:30.433Z,42.75
2023-05-20T03:38:24.792Z,41.25
2023-05-20T03:41:30.627Z,48.00
2023-05-20T03:44:36.376Z,48.00
2023-05-20T03:47:43.126Z,42.25
2023-05-20T03:50:47.677Z,88.25
2023-05-20T03:53:56.312Z,66.75
2023-05-20T03:57:04.513Z,91.75
2023-05-20T04:00:14.784Z,35.75
2023-05-20T04:03:21.362Z,32.75
2023-05-20T04:06:27.534Z,56.75
2023-05-20T04:09:33.729Z,44.50
2023-05-20T04:12:38.586Z,37.25
2023-05-20T04:15:49.153Z,35.25
2023-05-20T04:18:54.042Z,40.00
2023-05-20T04:22:02.935Z,33.50
2023-05-20T04:25:10.282Z,29.25
2023-05-20T04:28:16.659Z,34.00
2023-05-20T04:31:27.092Z,38.00
2023-05-20T04:34:30.919Z,36.25
2023-05-20T04:37:35.067Z,36.50
2023-05-20T04:40:39.241Z,36.25
2023-05-20T04:43:45.923Z,36.75
2023-05-20T04:46:52.373Z,41.00
2023-05-20T04:49:57.801Z,38.50
2023-05-20T04:53:10.814Z,37.00
2023-05-20T04:56:16.299Z,45.25
2023-05-20T04:59:21.543Z,47.50
2023-05-20T05:02:34.964Z,49.25
2023-05-20T05:05:44.107Z,42.00
2023-05-20T05:08:57.710Z,38.25
2023-05-20T05:12:03.234Z,40.25
2023-05-20T05:15:08.528Z,48.75
2023-05-20T05:18:18.439Z,39.25
2023-05-20T05:21:23.737Z,38.75
2023-05-20T05:24:32.001Z,44.25
2023-05-20T05:27:48.859Z,43.75
2023-05-20T05:30:56.387Z,57.25
2023-05-20T05:34:03.979Z,51.75
2023-05-20T05:37:07.488Z,44.75
2023-05-20T05:40:13.580Z,40.50
2023-05-20T05:43:18.088Z,44.00
2023-05-20T05:46:27.236Z,44.25
2023-05-20T05:49:32.716Z,40.50
2023-05-20T05:52:36.878Z,48.25
2023-05-20T05:55:42.043Z,45.75
2023-05-20T05:58:48.715Z,47.25
2023-05-20T06:01:53.211Z,53.25
2023-05-20T06:04:59.932Z,50.25
2023-05-20T06:08:03.682Z,52.50
2023-05-20T06:11:10.268Z,48.75
2023-05-20T06:14:14.173Z,49.00
2023-05-20T06:17:20.383Z,47.75
2023-05-20T06:20:25.540Z,49.75
2023-05-20T06:23:30.567Z,52.50
2023-05-20T06:26:39.865Z,47.25
2023-05-20T06:29:48.657Z,50.25
2023-05-20T06:32:53.565Z,48.75
2023-05-20T06:36:01.745Z,48.00
2023-05-20T06:39:15.995Z,49.50
2023-05-20T06:42:34.211Z,46.75
2023-05-20T06:45:45.538Z,43.25
2023-05-20T06:49:03.356Z,44.00
2023-05-20T06:52:11.467Z,47.00
2023-05-20T06:55:18.404Z,39.00
2023-05-20T06:58:22.898Z,41.33
2023-05-20T07:01:27.553Z,44.00
2023-05-20T07:04:33.168Z,37.33
2023-05-20T07:08:01.422Z,40.67
2023-05-20T07:11:06.618Z,37.67
2023-05-20T07:14:11.876Z,36.67
2023-05-20T07:17:16.800Z,30.00
2023-05-20T07:20:27.159Z,26.00
2023-05-20T07:23:35.498Z,23.33
2023-05-20T07:26:40.094Z,22.00
2023-05-20T07:29:43.830Z,24.67
2023-05-20T07:32:49.090Z,20.33
2023-05-20T07:35:56.705Z,22.33
2023-05-20T07:39:07.867Z,20.33
2023-05-20T07:42:16.419Z,14.33
2023-05-20T07:45:24.689Z,15.67
2023-05-20T07:48:28.409Z,11.67
2023-05-20T07:51:37.550Z,15.67
2023-05-20T07:54:46.017Z,15.33
2023-05-20T07:57:52.155Z,13.00
2023-05-20T08:00:58.165Z,16.33
2023-05-20T08:04:03.172Z,19.00
2023-05-20T08:07:07.414Z,18.00
2023-05-20T08:10:33.670Z,17.00
2023-05-20T08:13:58.032Z,14.00
2023-05-20T08:17:05.831Z,16.33
2023-05-20T08:20:14.202Z,14.67
2023-05-20T08:23:18.910Z,16.00
2023-05-20T08:26:23.927Z,19.00
2023-05-20T08:29:40.663Z,17.00
2023-05-20T08:32:51.932Z,18.33
2023-05-20T08:36:00.115Z,17.67
2023-05-20T08:39:04.664Z,15.00
2023-05-20T08:42:13.486Z,19.67
2023-05-20T08:45:19.716Z,18.67
2023-05-20T08:48:38.969Z,17.00
2023-05-20T08:52:48.341Z,14.67
2023-05-20T08:56:04.761Z,18.00
2023-05-20T08:59:12.822Z,16.33
2023-05-20T09:02:19.912Z,13.00
2023-05-20T09:05:43.756Z,9.00
2023-05-20T09:09:01.517Z,16.67
2023-05-20T09:13:16.762Z,16.33
2023-05-20T09:20:15.913Z,16.00
2023-05-20T09:23:21.881Z,17.67
2023-05-20T09:26:28.012Z,18.00
2023-05-20T09:30:04.516Z,16.00
2023-05-20T09:33:58.188Z,19.00
2023-05-20T09:37:37.366Z,14.33
2023-05-20T09:40:45.414Z,13.33
2023-05-20T09:43:49.902Z,15.67
2023-05-20T09:46:55.022Z,19.33
2023-05-20T09:50:04.025Z,17.33
2023-05-20T09:53:08.895Z,15.33
2023-05-20T09:56:34.422Z,19.33
2023-05-20T09:59:53.962Z,19.33
2023-05-20T10:02:58.904Z,17.33
2023-05-20T10:06:25.962Z,19.00
2023-05-20T10:09:45.624Z,17.67
2023-05-20T10:13:09.234Z,19.00
2023-05-20T10:16:30.468Z,12.00
2023-05-20T10:19:35.776Z,18.33
2023-05-20T10:22:41.319Z,15.67
2023-05-20T10:25:53.085Z,15.00
2023-05-20T10:28:59.323Z,13.33
2023-05-20T10:32:04.467Z,15.67
2023-05-20T10:35:11.237Z,15.00
2023-05-20T10:38:17.176Z,15.00
2023-05-20T10:41:23.228Z,18.67
2023-05-20T10:44:27.099Z,13.00
2023-05-20T10:47:31.190Z,14.67
2023-05-20T10:50:37.338Z,16.00
2023-05-20T10:53:46.992Z,16.33
2023-05-20T10:56:55.231Z,17.33
2023-05-20T11:00:01.448Z,17.33
2023-05-20T11:03:07.528Z,14.33
2023-05-20T11:06:17.591Z,14.00
2023-05-20T11:09:24.817Z,13.67
2023-05-20T11:12:29.592Z,17.67
2023-05-20T11:15:34.199Z,7.33
2023-05-20T11:18:37.867Z,14.00
2023-05-20T11:21:44.782Z,16.67
2023-05-20T11:24:50.182Z,15.00
2023-05-20T11:27:54.760Z,16.33
2023-05-20T11:30:59.321Z,13.67
2023-05-20T11:34:04.666Z,17.00
2023-05-20T11:37:15.257Z,19.00
2023-05-20T11:40:32.768Z,13.00
2023-05-20T11:43:43.037Z,11.67
2023-05-20T11:46:50.971Z,16.67
2023-05-20T11:49:54.619Z,15.00
2023-05-20T11:53:01.075Z,14.00
2023-05-20T11:56:06.385Z,14.67
2023-05-20T11:59:11.437Z,15.33
2023-05-20T12:02:16.368Z,18.67
2023-05-20T12:05:21.018Z,15.00
2023-05-20T12:08:24.643Z,22.33
2023-05-20T12:11:30.489Z,16.33
2023-05-20T12:14:34.676Z,11.67
2023-05-20T12:17:49.535Z,12.67
2023-05-20T12:20:54.030Z,17.67
2023-05-20T12:23:58.510Z,15.00
2023-05-20T12:27:08.280Z,12.00
2023-05-20T12:30:14.013Z,15.00
2023-05-20T12:33:18.288Z,14.33
2023-05-20T12:36:22.760Z,12.00
2023-05-20T12:39:38.742Z,14.00
2023-05-20T12:42:53.864Z,12.33
2023-05-20T12:45:57.867Z,11.33
2023-05-20T12:49:03.029Z,11.00
2023-05-20T12:52:19.021Z,11.67
2023-05-20T12:55:24.025Z,12.00
2023-05-20T12:58:33.377Z,12.33
2023-05-20T13:01:41.570Z,11.33
2023-05-20T13:04:45.238Z,8.33
2023-05-20T13:07:49.262Z,12.00
2023-05-20T13:10:52.675Z,10.67
2023-05-20T13:13:59.201Z,14.00
2023-05-20T13:17:02.843Z,13.67
2023-05-20T13:20:07.919Z,11.00
2023-05-20T13:23:13.352Z,11.00
2023-05-20T13:26:18.796Z,12.00
2023-05-20T13:29:24.289Z,11.67
2023-05-20T13:32:28.496Z,14.00
2023-05-20T13:35:32.198Z,13.33
2023-05-20T13:38:38.129Z,12.33
2023-05-20T13:41:41.628Z,11.00
2023-05-20T13:44:54.298Z,12.00
2023-05-20T13:48:01.434Z,10.33
2023-05-20T13:51:08.504Z,9.00
2023-05-20T13:54:12.904Z,10.33
2023-05-20T13:57:19.368Z,12.33
2023-05-20T14:00:26.726Z,11.67
2023-05-20T14:03:34.947Z,11.33
2023-05-20T14:06:38.638Z,10.00
2023-05-20T14:09:42.633Z,12.33
2023-05-20T14:12:48.250Z,13.00
2023-05-20T14:15:56.077Z,10.00
2023-05-20T14:18:59.690Z,12.67
2023-05-20T14:22:06.205Z,14.00
2023-05-20T14:25:10.249Z,12.00
2023-05-20T14:28:15.752Z,15.00
2023-05-20T14:31:20.775Z,12.00
2023-05-20T14:34:25.002Z,10.33
2023-05-20T14:37:29.213Z,12.67
2023-05-20T14:40:38.603Z,11.00
2023-05-20T14:43:42.589Z,13.00
2023-05-20T14:46:48.016Z,14.33
2023-05-20T14:49:52.168Z,13.00
2023-05-20T14:52:58.760Z,11.00
2023-05-20T14:56:02.435Z,13.33
2023-05-20T14:59:06.564Z,15.00
2023-05-20T15:02:15.589Z,16.67
2023-05-20T15:05:20.285Z,15.00
2023-05-20T15:08:26.209Z,15.33
2023-05-20T15:11:55.733Z,13.67
2023-05-20T15:15:15.491Z,11.67
2023-05-20T15:18:55.606Z,14.67
2023-05-20T15:22:12.196Z,10.00
2023-05-20T15:25:49.390Z,16.00
2023-05-20T15:29:19.988Z,17.33
2023-05-20T15:32:48.694Z,15.67
2023-05-20T15:36:07.179Z,12.67
2023-05-20T15:39:29.770Z,13.33
2023-05-20T15:42:55.019Z,14.67
2023-05-20T15:46:55.759Z,20.33
2023-05-20T15:50:39.862Z,20.00
2023-05-20T15:53:52.884Z,14.67
2023-05-20T15:57:20.823Z,14.00
2023-05-20T16:01:02.621Z,18.00
2023-05-20T16:04:09.442Z,23.33
2023-05-20T16:07:34.091Z,16.33
2023-05-20T16:10:41.330Z,17.67
2023-05-20T16:18:31.855Z,14.00
2023-05-20T16:21:51.126Z,13.67
2023-05-20T16:25:49.552Z,21.33
2023-05-20T16:29:02.391Z,16.00
2023-05-20T16:32:08.671Z,17.00
2023-05-20T16:35:17.974Z,20.00
2023-05-20T16:38:34.504Z,19.00
2023-05-20T16:41:41.630Z,16.67
2023-05-20T16:44:52.200Z,17.00
2023-05-20T16:47:58.596Z,22.00
2023-05-20T16:51:33.774Z,14.33
2023-05-20T16:55:33.739Z,19.33
2023-05-20T16:58:43.232Z,14.33
2023-05-20T17:02:10.589Z,17.00
2023-05-20T17:05:37.148Z,23.67
2023-05-20T17:08:55.593Z,29.00
2023-05-20T17:12:20.889Z,49.00
2023-05-20T17:15:29.934Z,45.50
2023-05-20T17:18:35.818Z,45.75
2023-05-20T17:21:44.615Z,20.67
2023-05-20T17:24:51.395Z,19.00
2023-05-20T17:28:01.784Z,22.67
2023-05-20T17:31:10.821Z,20.67
2023-05-20T17:34:42.665Z,19.00
2023-05-20T17:37:51.118Z,11.33
2023-05-20T17:41:11.925Z,44.75
2023-05-20T17:44:29.739Z,42.00
2023-05-20T17:48:01.483Z,51.75
2023-05-20T17:51:58.445Z,24.00
2023-05-20T17:55:25.045Z,26.00
2023-05-20T17:58:53.725Z,22.67
2023-05-20T18:02:19.561Z,20.33
2023-05-20T18:07:11.122Z,20.00
2023-05-20T18:10:39.543Z,21.00
2023-05-20T18:14:13.712Z,26.00
2023-05-20T18:17:31.129Z,28.00
2023-05-20T18:21:01.416Z,25.33
2023-05-20T18:24:37.286Z,17.67
2023-05-20T18:28:20.980Z,22.67
2023-05-20T18:31:42.592Z,29.67
2023-05-20T18:35:08.981Z,25.33
2023-05-20T18:38:39.047Z,28.33
2023-05-20T18:41:49.210Z,29.00
2023-05-20T18:45:09.998Z,33.67
2023-05-20T18:48:26.581Z,31.00
2023-05-20T18:51:34.406Z,23.33
2023-05-20T18:54:40.995Z,26.00
2023-05-20T18:58:04.721Z,20.67
2023-05-20T19:02:07.129Z,18.67
2023-05-20T19:06:19.193Z,25.67
2023-05-20T19:09:46.537Z,24.00
2023-05-20T19:13:20.589Z,23.67
2023-05-20T19:16:49.763Z,22.33
2023-05-20T19:20:21.506Z,18.67
2023-05-20T19:23:50.529Z,22.00
2023-05-20T19:27:17.299Z,24.33
2023-05-20T19:30:57.684Z,26.67
2023-05-20T19:34:40.236Z,24.33
2023-05-20T19:38:31.900Z,29.00
2023-05-20T19:41:56.834Z,21.33
2023-05-20T19:45:00.770Z,24.00
2023-05-20T19:48:30.642Z,18.33
2023-05-20T19:52:57.655Z,26.00
2023-05-20T19:56:12.844Z,26.33
2023-05-20T20:00:48.244Z,27.67
2023-05-20T20:04:18.560Z,22.00
2023-05-20T20:07:23.971Z,22.00
2023-05-20T20:10:55.850Z,32.67
2023-05-20T20:14:47.948Z,27.00
2023-05-20T20:17:58.428Z,29.33
2023-05-20T20:21:09.110Z,21.00
2023-05-20T20:24:33.750Z,21.67
2023-05-20T20:32:22.385Z,24.33
2023-05-20T20:35:34.242Z,25.33
2023-05-20T20:38:38.832Z,22.33
2023-05-20T20:41:45.120Z,26.67
2023-05-20T20:44:52.524Z,19.50
2023-05-20T20:47:58.248Z,24.00
2023-05-20T20:51:02.097Z,14.25
2023-05-20T20:54:12.159Z,24.50
2023-05-20T20:57:17.642Z,19.75
2023-05-20T21:00:23.762Z,27.25
2023-05-20T21:03:30.744Z,29.75
2023-05-20T21:06:40.201Z,28.50
2023-05-20T21:09:48.196Z,32.25
2023-05-20T21:13:00.175Z,33.50
2023-05-20T21:16:07.499Z,23.50
2023-05-20T21:19:44.450Z,25.25
2023-05-20T21:22:49.630Z,17.25
2023-05-20T21:25:56.383Z,19.25
2023-05-20T21:29:02.711Z,26.50
2023-05-20T21:32:10.096Z,28.00
2023-05-20T21:35:29.271Z,23.67
2023-05-20T21:38:41.971Z,25.00
2023-05-20T21:41:46.890Z,21.67
2023-05-20T21:44:55.250Z,19.00
2023-05-20T21:48:08.160Z,23.00
2023-05-20T21:51:28.798Z,22.00
2023-05-20T21:54:40.010Z,20.00
2023-05-20T21:57:51.130Z,24.00
2023-05-20T22:01:00.611Z,26.33
2023-05-20T22:04:05.212Z,16.33
2023-05-20T22:07:14.993Z,25.00
2023-05-20T22:10:23.327Z,18.00
2023-05-20T22:13:41.701Z,20.50
2023-05-20T22:16:48.590Z,22.00
2023-05-20T22:19:54.090Z,26.75
2023-05-20T22:22:59.167Z,24.75
2023-05-20T22:26:08.788Z,15.00
2023-05-20T22:29:12.512Z,22.00
2023-05-20T22:32:16.690Z,22.75
2023-05-20T22:35:23.679Z,29.00
2023-05-20T22:38:43.951Z,22.00
2023-05-20T22:41:56.526Z,20.00
2023-05-20T22:45:04.376Z,22.25
2023-05-20T22:48:30.635Z,19.67
2023-05-20T22:51:38.688Z,23.33
2023-05-20T22:58:27.577Z,22.67
2023-05-20T23:01:48.184Z,19.75
2023-05-20T23:05:25.045Z,23.67
2023-05-20T23:09:33.389Z,22.00
2023-05-20T23:13:34.819Z,28.50
2023-05-20T23:17:15.533Z,23.00
2023-05-20T23:20:57.583Z,24.75
2023-05-20T23:24:15.535Z,24.00
2023-05-20T23:27:55.893Z,21.00
2023-05-20T23:31:14.841Z,21.33
2023-05-20T23:34:20.625Z,27.00
2023-05-20T23:37:38.847Z,17.67
2023-05-20T23:41:18.503Z,21.33
2023-05-20T23:45:27.944Z,23.00
2023-05-20T23:48:58.195Z,20.33
2023-05-20T23:52:09.853Z,20.33
2023-05-20T23:55:53.696Z,21.33
2023-05-20T23:59:31.612Z,16.67
